createdAt,value
2023-05-21T00:01:25.734Z,1.80
2023-05-21T00:03:52.416Z,1.45
2023-05-21T00:06:21.208Z,1.90
2023-05-21T00:08:47.815Z,1.42
2023-05-21T00:11:14.250Z,1.60
2023-05-21T00:13:40.956Z,1.75
2023-05-21T00:16:08.039Z,1.80
2023-05-21T00:18:34.494Z,1.90
2023-05-21T00:21:01.622Z,1.90
2023-05-21T00:23:28.041Z,1.90
2023-05-21T00:25:54.465Z,1.50
2023-05-21T00:28:21.031Z,1.55
2023-05-21T00:30:47.715Z,1.73
2023-05-21T00:33:14.701Z,1.75
2023-05-21T00:35:41.304Z,2.10
2023-05-21T00:38:08.554Z,1.42
2023-05-21T00:40:36.177Z,1.80
2023-05-21T00:43:02.663Z,1.67
2023-05-21T00:45:29.594Z,1.77
2023-05-21T00:47:56.390Z,1.87
2023-05-21T00:50:23.840Z,1.90
2023-05-21T00:52:50.582Z,2.00
2023-05-21T00:55:17.350Z,1.80
2023-05-21T00:57:43.884Z,2.00
2023-05-21T01:00:11.058Z,2.20
2023-05-21T01:02:38.336Z,2.13
2023-05-21T01:05:08.280Z,1.88
2023-05-21T01:07:36.672Z,2.05
2023-05-21T01:10:05.547Z,2.10
2023-05-21T01:12:33.887Z,2.43
2023-05-21T01:15:02.687Z,1.80
2023-05-21T01:17:30.207Z,2.20
2023-05-21T01:19:58.121Z,2.20
2023-05-21T01:22:25.224Z,2.33
2023-05-21T01:24:55.400Z,2.37
2023-05-21T01:27:22.636Z,1.90
2023-05-21T01:29:49.430Z,2.03
2023-05-21T01:32:41.283Z,2.30
2023-05-21T01:35:39.819Z,1.90
2023-05-21T01:38:17.155Z,2.00
2023-05-21T01:41:04.709Z,2.47
2023-05-21T01:43:38.275Z,2.10
2023-05-21T01:46:07.685Z,2.50
2023-05-21T01:48:35.649Z,2.47
2023-05-21T01:51:05.011Z,2.07
2023-05-21T01:53:32.202Z,2.60
2023-05-21T01:55:59.494Z,2.72
2023-05-21T01:58:26.088Z,2.50
2023-05-21T02:00:52.590Z,2.30
2023-05-21T02:03:21.695Z,2.47
2023-05-21T02:05:48.228Z,2.58
2023-05-21T02:08:15.204Z,2.90
2023-05-21T02:10:41.774Z,3.10
2023-05-21T02:13:08.394Z,2.45
2023-05-21T02:15:35.422Z,2.60
2023-05-21T02:18:03.461Z,3.33
2023-05-21T02:20:30.903Z,2.90
2023-05-21T02:22:57.432Z,2.80
2023-05-21T02:25:23.938Z,2.65
2023-05-21T02:27:53.576Z,2.53
2023-05-21T02:30:21.067Z,3.05
2023-05-21T02:32:49.782Z,2.80
2023-05-21T02:35:16.350Z,2.70
2023-05-21T02:37:44.083Z,3.80
2023-05-21T02:40:11.405Z,3.00
2023-05-21T02:42:40.438Z,2.95
2023-05-21T02:45:11.828Z,3.00
2023-05-21T02:47:38.777Z,3.42
2023-05-21T02:50:07.135Z,2.63
2023-05-21T02:52:33.756Z,3.23
2023-05-21T02:55:00.253Z,3.28
2023-05-21T02:57:26.736Z,3.08
2023-05-21T02:59:53.192Z,2.70
2023-05-21T03:02:19.663Z,3.22
2023-05-21T03:04:46.495Z,3.20
2023-05-21T03:07:19.116Z,2.80
2023-05-21T03:09:46.160Z,2.97
2023-05-21T03:12:12.636Z,3.20
2023-05-21T03:14:39.305Z,2.72
2023-05-21T03:17:06.236Z,3.43
2023-05-21T03:19:36.429Z,3.00
2023-05-21T03:22:06.524Z,2.97
2023-05-21T03:24:33.308Z,3.00
2023-05-21T03:27:01.371Z,3.05
2023-05-21T03:29:28.443Z,3.33
2023-05-21T03:31:55.679Z,3.15
2023-05-21T03:34:22.606Z,3.10
2023-05-21T03:36:49.570Z,3.33
2023-05-21T03:39:16.114Z,2.90
2023-05-21T03:41:43.110Z,3.07
2023-05-21T03:44:09.577Z,2.88
2023-05-21T03:46:37.207Z,3.00
2023-05-21T03:49:04.331Z,3.40
2023-05-21T03:51:31.793Z,2.83
2023-05-21T03:53:59.514Z,3.03
2023-05-21T03:56:26.401Z,2.88
2023-05-21T03:58:53.119Z,2.97
2023-05-21T04:01:19.849Z,2.63
2023-05-21T04:03:46.882Z,2.75
2023-05-21T04:06:13.546Z,3.03
2023-05-21T04:08:39.998Z,2.85
2023-05-21T04:11:06.466Z,3.20
2023-05-21T04:13:33.008Z,3.13
2023-05-21T04:15:59.820Z,2.88
2023-05-21T04:18:26.790Z,3.17
2023-05-21T04:20:53.815Z,2.55
2023-05-21T04:23:23.975Z,2.55
2023-05-21T04:25:50.820Z,3.03
2023-05-21T04:28:20.502Z,2.90
2023-05-21T04:30:47.704Z,3.80
2023-05-21T04:33:17.945Z,2.95
2023-05-21T04:35:47.211Z,2.88
2023-05-21T04:38:14.065Z,3.08
2023-05-21T04:40:40.584Z,2.92
2023-05-21T04:43:08.111Z,2.87
2023-05-21T04:45:34.703Z,2.92
2023-05-21T04:48:01.400Z,2.85
2023-05-21T04:50:30.707Z,2.70
2023-05-21T04:52:58.726Z,2.95
2023-05-21T04:55:25.820Z,2.97
2023-05-21T04:57:52.778Z,3.03
2023-05-21T05:00:19.684Z,2.78
2023-05-21T05:02:46.370Z,3.13
2023-05-21T05:05:12.942Z,3.28
2023-05-21T05:07:40.092Z,3.20
2023-05-21T05:10:07.260Z,2.92
2023-05-21T05:12:33.656Z,2.70
2023-05-21T05:15:00.090Z,2.70
2023-05-21T05:17:26.652Z,3.08
2023-05-21T05:19:53.215Z,3.53
2023-05-21T05:22:19.707Z,3.00
2023-05-21T05:24:46.287Z,3.38
2023-05-21T05:27:12.819Z,3.15
2023-05-21T05:29:39.236Z,3.20
2023-05-21T05:32:06.203Z,3.20
2023-05-21T05:34:32.726Z,3.00
2023-05-21T05:36:59.132Z,2.88
2023-05-21T05:39:25.567Z,3.67
2023-05-21T05:41:52.010Z,3.22
2023-05-21T05:44:18.529Z,3.17
2023-05-21T05:46:45.049Z,2.88
2023-05-21T05:49:11.648Z,3.45
2023-05-21T05:51:38.168Z,3.00
2023-05-21T05:54:05.018Z,3.60
2023-05-21T05:56:31.846Z,3.43
2023-05-21T05:58:59.214Z,3.45
2023-05-21T06:01:26.211Z,3.20
2023-05-21T06:03:53.099Z,3.53
2023-05-21T06:06:19.981Z,3.55
2023-05-21T06:08:46.774Z,3.20
2023-05-21T06:11:16.961Z,3.58
2023-05-21T06:13:43.463Z,3.30
2023-05-21T06:16:10.208Z,3.58
2023-05-21T06:18:36.987Z,3.45
2023-05-21T06:21:03.603Z,3.30
2023-05-21T06:23:32.128Z,3.67
2023-05-21T06:25:58.621Z,3.72
2023-05-21T06:28:25.024Z,3.42
2023-05-21T06:30:51.562Z,3.83
2023-05-21T06:33:18.232Z,3.47
2023-05-21T06:35:44.778Z,3.90
2023-05-21T06:38:11.263Z,3.97
2023-05-21T06:40:37.770Z,3.85
2023-05-21T06:43:05.197Z,3.58
2023-05-21T06:45:31.879Z,3.60
2023-05-21T06:47:58.370Z,4.05
2023-05-21T06:50:24.811Z,3.75
2023-05-21T06:52:51.255Z,3.75
2023-05-21T06:55:17.871Z,4.35
2023-05-21T06:57:44.391Z,4.10
2023-05-21T07:00:12.333Z,4.20
2023-05-21T07:02:38.867Z,3.83
2023-05-21T07:05:05.820Z,4.45
2023-05-21T07:07:32.242Z,4.00
2023-05-21T07:09:58.707Z,3.97
2023-05-21T07:12:25.140Z,4.25
2023-05-21T07:14:51.638Z,3.78
2023-05-21T07:17:18.030Z,3.53
2023-05-21T07:19:44.480Z,3.80
2023-05-21T07:22:12.581Z,3.90
2023-05-21T07:24:39.128Z,3.72
2023-05-21T07:27:17.776Z,4.00
2023-05-21T07:29:51.742Z,4.30
2023-05-21T07:32:18.211Z,4.00
2023-05-21T07:34:44.628Z,4.03
2023-05-21T07:37:11.101Z,4.38
2023-05-21T07:39:37.782Z,3.67
2023-05-21T07:42:04.353Z,3.55
2023-05-21T07:44:31.873Z,3.90
2023-05-21T07:46:58.381Z,4.40
2023-05-21T07:49:24.849Z,3.78
2023-05-21T07:51:51.751Z,4.05
2023-05-21T07:54:19.635Z,4.18
2023-05-21T07:56:46.186Z,3.67
2023-05-21T07:59:14.603Z,3.73
2023-05-21T08:01:41.907Z,4.38
2023-05-21T08:04:08.573Z,4.30
2023-05-21T08:06:37.402Z,3.83
2023-05-21T08:09:04.813Z,4.30
2023-05-21T08:11:31.642Z,4.37
2023-05-21T08:13:58.086Z,3.95
2023-05-21T08:16:24.644Z,3.40
2023-05-21T08:18:51.646Z,3.95
2023-05-21T08:21:18.193Z,4.40
2023-05-21T08:23:44.625Z,4.50
2023-05-21T08:26:11.843Z,3.55
2023-05-21T08:28:39.140Z,4.45
2023-05-21T08:31:05.870Z,3.92
2023-05-21T08:33:32.421Z,3.53
2023-05-21T08:35:59.495Z,4.07
2023-05-21T08:38:27.521Z,4.18
2023-05-21T08:40:56.273Z,4.05
2023-05-21T08:43:23.754Z,4.10
2023-05-21T08:45:55.008Z,4.30
2023-05-21T08:48:24.008Z,4.40
2023-05-21T08:50:52.745Z,4.75
2023-05-21T08:53:27.289Z,4.43
2023-05-21T08:55:56.255Z,4.65
2023-05-21T08:58:22.902Z,4.53
2023-05-21T09:00:49.396Z,4.17
2023-05-21T09:03:16.466Z,4.53
2023-05-21T09:05:45.736Z,4.68
2023-05-21T09:08:21.788Z,4.53
2023-05-21T09:10:52.537Z,4.50
2023-05-21T09:13:20.339Z,4.33
2023-05-21T09:15:47.864Z,4.05
2023-05-21T09:18:14.854Z,4.20
2023-05-21T09:20:41.473Z,4.28
2023-05-21T09:23:16.447Z,4.18
2023-05-21T09:25:47.305Z,3.93
2023-05-21T09:28:15.718Z,4.00
2023-05-21T09:30:49.180Z,4.70
2023-05-21T09:33:31.727Z,4.70
2023-05-21T09:35:58.350Z,4.75
2023-05-21T09:38:25.831Z,4.07
2023-05-21T09:40:56.404Z,4.10
2023-05-21T09:43:23.034Z,4.90
2023-05-21T09:45:54.287Z,4.53
2023-05-21T09:48:42.051Z,4.43
2023-05-21T09:51:12.444Z,4.30
2023-05-21T09:53:57.918Z,4.63
2023-05-21T09:56:26.686Z,4.28
2023-05-21T09:58:58.404Z,4.63
2023-05-21T10:01:25.541Z,4.95
2023-05-21T10:03:58.791Z,4.27
2023-05-21T10:06:33.663Z,4.70
2023-05-21T10:09:05.599Z,4.82
2023-05-21T10:11:33.222Z,5.00
2023-05-21T10:14:19.704Z,4.95
2023-05-21T10:16:48.132Z,4.50
2023-05-21T10:19:16.109Z,4.15
2023-05-21T10:21:43.647Z,4.10
2023-05-21T10:24:10.928Z,4.40
2023-05-21T10:26:40.780Z,4.50
2023-05-21T10:29:08.891Z,4.93
2023-05-21T10:31:36.818Z,5.13
2023-05-21T10:34:05.831Z,4.40
2023-05-21T10:36:32.889Z,3.97
2023-05-21T10:39:00.658Z,4.32
2023-05-21T10:41:28.127Z,4.13
2023-05-21T10:44:28.139Z,4.38
2023-05-21T10:46:54.468Z,4.00
2023-05-21T10:49:51.831Z,4.63
2023-05-21T10:52:36.747Z,4.43
2023-05-21T10:55:41.177Z,4.20
2023-05-21T10:58:29.882Z,4.32
2023-05-21T11:00:58.620Z,5.10
2023-05-21T11:03:25.600Z,4.70
2023-05-21T11:05:55.177Z,4.53
2023-05-21T11:08:27.065Z,4.40
2023-05-21T11:10:58.402Z,4.80
2023-05-21T11:13:31.525Z,4.53
2023-05-21T11:15:58.075Z,4.90
2023-05-21T11:18:30.592Z,4.60
2023-05-21T11:21:17.406Z,4.77
2023-05-21T11:23:59.423Z,5.07
2023-05-21T11:26:27.835Z,4.78
2023-05-21T11:29:06.545Z,5.07
2023-05-21T11:31:38.795Z,5.20
2023-05-21T11:34:35.059Z,4.90
2023-05-21T11:37:33.155Z,5.80
2023-05-21T11:40:30.581Z,5.25
2023-05-21T11:42:57.275Z,4.45
2023-05-21T11:45:28.716Z,5.13
2023-05-21T11:47:56.320Z,5.13
2023-05-21T11:50:22.874Z,5.63
2023-05-21T11:52:50.426Z,5.40
2023-05-21T11:55:22.001Z,5.47
2023-05-21T11:57:52.295Z,5.32
2023-05-21T12:00:18.721Z,5.20
2023-05-21T12:02:52.100Z,5.07
2023-05-21T12:05:18.803Z,5.97
2023-05-21T12:07:52.192Z,5.40
2023-05-21T12:10:23.794Z,5.60
2023-05-21T12:12:56.538Z,5.37
2023-05-21T12:15:25.112Z,5.82
2023-05-21T12:17:53.107Z,5.80
2023-05-21T12:20:19.986Z,6.50
2023-05-21T12:22:48.916Z,5.80
2023-05-21T12:25:19.285Z,6.53
2023-05-21T12:27:46.706Z,6.32
2023-05-21T12:30:13.666Z,6.30
2023-05-21T12:32:46.435Z,6.55
2023-05-21T12:35:25.200Z,5.97
2023-05-21T12:37:52.293Z,6.23
2023-05-21T12:40:20.000Z,6.68
2023-05-21T12:42:46.645Z,6.10
2023-05-21T12:45:13.709Z,6.55
2023-05-21T12:47:40.266Z,6.18
2023-05-21T12:50:13.980Z,5.53
2023-05-21T12:52:43.084Z,6.43
2023-05-21T12:55:11.757Z,6.32
2023-05-21T12:57:38.917Z,6.50
2023-05-21T13:00:07.161Z,6.20
2023-05-21T13:02:41.623Z,6.03
2023-05-21T13:05:19.877Z,8.13
2023-05-21T13:07:48.161Z,7.57
2023-05-21T13:10:16.713Z,7.22
2023-05-21T13:12:44.654Z,6.38
2023-05-21T13:15:11.573Z,6.50
2023-05-21T13:17:38.099Z,6.70
2023-05-21T13:20:18.334Z,6.35
2023-05-21T13:22:48.784Z,6.38
2023-05-21T13:25:18.951Z,6.95
2023-05-21T13:27:46.013Z,7.87
2023-05-21T13:30:13.282Z,7.07
2023-05-21T13:32:41.778Z,6.57
2023-05-21T13:35:09.070Z,7.13
2023-05-21T13:37:38.861Z,7.03
2023-05-21T13:40:07.208Z,6.90
2023-05-21T13:42:35.277Z,6.47
2023-05-21T13:45:01.880Z,6.55
2023-05-21T13:47:28.423Z,5.65
2023-05-21T13:49:54.983Z,5.75
2023-05-21T13:52:21.729Z,6.87
2023-05-21T13:54:48.292Z,6.47
2023-05-21T13:57:15.773Z,6.50
2023-05-21T13:59:42.300Z,7.00
2023-05-21T14:02:09.480Z,6.22
2023-05-21T14:04:39.002Z,6.47
2023-05-21T14:07:06.476Z,6.80
2023-05-21T14:09:33.170Z,6.60
2023-05-21T14:11:59.552Z,6.18
2023-05-21T14:14:25.931Z,7.13
2023-05-21T14:16:52.661Z,6.33
2023-05-21T14:19:19.422Z,6.20
2023-05-21T14:21:45.893Z,6.70
2023-05-21T14:24:12.334Z,6.93
2023-05-21T14:26:41.339Z,6.65
2023-05-21T14:29:08.322Z,6.80
2023-05-21T14:31:34.998Z,6.88
2023-05-21T14:34:02.937Z,6.10
2023-05-21T14:36:30.036Z,7.38
2023-05-21T14:38:56.561Z,8.25
2023-05-21T14:41:29.292Z,7.83
2023-05-21T14:43:55.808Z,8.60
2023-05-21T14:46:22.785Z,7.20
2023-05-21T14:48:49.376Z,7.10
2023-05-21T14:51:16.032Z,5.13
2023-05-21T14:53:42.485Z,4.43
2023-05-21T14:56:09.045Z,4.10
2023-05-21T14:58:35.704Z,4.00
2023-05-21T15:01:04.029Z,6.07
2023-05-21T15:03:30.761Z,4.10
2023-05-21T15:05:58.557Z,4.50
2023-05-21T15:08:25.398Z,4.45
2023-05-21T15:10:51.916Z,3.83
2023-05-21T15:13:18.453Z,3.60
2023-05-21T15:15:44.925Z,3.95
2023-05-21T15:18:11.676Z,4.10
2023-05-21T15:20:38.188Z,4.32
2023-05-21T15:23:15.954Z,5.05
2023-05-21T15:25:43.687Z,4.05
2023-05-21T15:28:11.811Z,4.13
2023-05-21T15:30:38.574Z,4.17
2023-05-21T15:33:05.105Z,4.47
2023-05-21T15:35:31.974Z,4.03
2023-05-21T15:37:58.575Z,4.40
2023-05-21T15:40:26.871Z,3.95
2023-05-21T15:42:53.813Z,4.20
2023-05-21T15:45:20.613Z,4.32
2023-05-21T15:47:47.291Z,4.13
2023-05-21T15:50:13.996Z,4.95
2023-05-21T15:52:41.664Z,4.57
2023-05-21T15:55:08.579Z,4.63
2023-05-21T15:57:35.043Z,4.50
2023-05-21T16:00:01.703Z,3.92
2023-05-21T16:02:28.283Z,4.57
2023-05-21T16:04:55.020Z,4.43
2023-05-21T16:07:23.642Z,4.50
2023-05-21T16:09:50.083Z,4.05
2023-05-21T16:12:16.654Z,4.15
2023-05-21T16:14:43.312Z,4.38
2023-05-21T16:17:09.900Z,4.20
2023-05-21T16:19:36.542Z,4.00
2023-05-21T16:22:03.058Z,4.10
2023-05-21T16:24:29.557Z,3.67
2023-05-21T16:26:55.998Z,3.65
2023-05-21T16:29:22.715Z,4.47
2023-05-21T16:31:49.248Z,4.30
2023-05-21T16:34:15.813Z,4.25
2023-05-21T16:36:42.651Z,4.25
2023-05-21T16:39:09.133Z,4.30
2023-05-21T16:41:35.907Z,4.10
2023-05-21T16:44:02.442Z,4.43
2023-05-21T16:46:29.015Z,5.72
2023-05-21T16:48:55.517Z,4.60
2023-05-21T16:51:22.537Z,7.00
2023-05-21T16:53:49.109Z,5.50
2023-05-21T16:56:15.611Z,5.13
2023-05-21T16:58:42.101Z,5.35
2023-05-21T17:01:08.585Z,4.32
2023-05-21T17:03:35.377Z,3.90
2023-05-21T17:06:01.879Z,4.50
2023-05-21T17:08:28.574Z,4.60
2023-05-21T17:10:55.480Z,4.40
2023-05-21T17:13:23.081Z,3.42
2023-05-21T17:15:51.433Z,4.38
2023-05-21T17:18:18.144Z,4.40
2023-05-21T17:20:44.852Z,4.37
2023-05-21T17:23:12.000Z,4.75
2023-05-21T17:25:39.252Z,4.63
2023-05-21T17:28:06.239Z,4.47
2023-05-21T17:30:32.743Z,4.25
2023-05-21T17:33:01.783Z,4.10
2023-05-21T17:35:28.337Z,4.80
2023-05-21T17:37:54.834Z,4.10
2023-05-21T17:40:23.720Z,4.80
2023-05-21T17:42:51.330Z,4.72
2023-05-21T17:45:18.437Z,4.83
2023-05-21T17:47:44.886Z,5.32
2023-05-21T17:50:11.360Z,5.18
2023-05-21T17:52:37.927Z,4.88
2023-05-21T17:55:04.631Z,5.47
2023-05-21T17:57:31.035Z,5.50
2023-05-21T17:59:57.502Z,5.18
2023-05-21T18:02:24.317Z,5.50
2023-05-21T18:04:50.834Z,5.70
2023-05-21T18:07:17.413Z,6.18
2023-05-21T18:09:43.952Z,6.10
2023-05-21T18:12:10.929Z,6.38
2023-05-21T18:14:37.332Z,6.30
2023-05-21T18:17:03.984Z,6.32
2023-05-21T18:19:31.523Z,6.43
2023-05-21T18:21:58.079Z,6.60
2023-05-21T18:24:24.552Z,7.03
2023-05-21T18:26:50.972Z,6.80
2023-05-21T18:29:17.538Z,6.85
2023-05-21T18:31:45.390Z,6.20
2023-05-21T18:34:12.041Z,6.57
2023-05-21T18:36:39.014Z,6.70
2023-05-21T18:39:07.166Z,6.38
2023-05-21T18:41:33.912Z,6.45
2023-05-21T18:44:01.777Z,6.88
2023-05-21T18:46:28.996Z,7.10
2023-05-21T18:48:56.106Z,6.85
2023-05-21T18:51:25.091Z,6.70
2023-05-21T18:53:51.569Z,7.32
2023-05-21T18:56:18.099Z,6.95
2023-05-21T18:58:44.573Z,7.53
2023-05-21T19:01:11.071Z,7.72
2023-05-21T19:03:38.403Z,8.23
2023-05-21T19:06:05.049Z,7.22
2023-05-21T19:08:31.772Z,8.07
2023-05-21T19:10:58.243Z,8.60
2023-05-21T19:13:24.685Z,8.23
2023-05-21T19:15:51.258Z,9.02
2023-05-21T19:18:17.800Z,8.38
2023-05-21T19:20:44.234Z,8.85
2023-05-21T19:23:10.856Z,8.17
2023-05-21T19:25:37.629Z,8.00
2023-05-21T19:28:04.765Z,8.73
2023-05-21T19:30:33.489Z,8.73
2023-05-21T19:33:00.113Z,9.50
2023-05-21T19:35:26.573Z,8.70
2023-05-21T19:37:54.556Z,9.25
2023-05-21T19:40:22.734Z,10.13
2023-05-21T19:42:49.219Z,9.00
2023-05-21T19:45:15.751Z,9.10
2023-05-21T19:47:43.242Z,8.30
2023-05-21T19:50:10.680Z,9.25
2023-05-21T19:52:38.864Z,8.50
2023-05-21T19:55:08.667Z,9.52
2023-05-21T19:57:35.274Z,9.45
2023-05-21T20:00:01.857Z,8.80
2023-05-21T20:02:28.713Z,9.18
2023-05-21T20:04:57.610Z,9.23
2023-05-21T20:07:24.353Z,8.98
2023-05-21T20:09:51.058Z,8.75
2023-05-21T20:12:17.614Z,9.27
2023-05-21T20:14:46.856Z,9.88
2023-05-21T20:17:14.640Z,8.90
2023-05-21T20:19:41.249Z,8.85
2023-05-21T20:22:07.705Z,8.75
2023-05-21T20:24:34.223Z,8.43
2023-05-21T20:27:01.675Z,9.30
2023-05-21T20:29:28.744Z,8.45
2023-05-21T20:31:55.500Z,8.57
2023-05-21T20:34:22.161Z,8.13
2023-05-21T20:36:49.196Z,8.00
2023-05-21T20:39:15.688Z,9.15
2023-05-21T20:41:44.533Z,8.55
2023-05-21T20:44:11.881Z,8.32
2023-05-21T20:46:39.013Z,8.68
2023-05-21T20:49:06.170Z,9.13
2023-05-21T20:51:33.118Z,8.20
2023-05-21T20:53:59.675Z,8.32
2023-05-21T20:56:40.745Z,9.40
2023-05-21T20:59:10.407Z,8.50
2023-05-21T21:01:37.826Z,8.90
2023-05-21T21:04:04.891Z,9.25
2023-05-21T21:06:32.046Z,9.30
2023-05-21T21:08:58.808Z,9.23
2023-05-21T21:11:26.642Z,8.98
2023-05-21T21:13:53.379Z,8.10
2023-05-21T21:16:19.901Z,8.90
2023-05-21T21:18:46.982Z,8.52
2023-05-21T21:21:13.893Z,8.68
2023-05-21T21:23:40.457Z,8.73
2023-05-21T21:26:07.162Z,8.83
2023-05-21T21:28:33.763Z,8.65
2023-05-21T21:31:00.511Z,9.63
2023-05-21T21:33:27.292Z,8.98
2023-05-21T21:35:53.926Z,9.10
2023-05-21T21:38:20.341Z,8.77
2023-05-21T21:40:46.858Z,9.95
2023-05-21T21:43:13.321Z,8.60
2023-05-21T21:45:39.800Z,9.30
2023-05-21T21:48:06.762Z,8.65
2023-05-21T21:50:33.253Z,9.80
2023-05-21T21:52:59.946Z,9.02
2023-05-21T21:55:26.520Z,9.60
2023-05-21T21:57:52.902Z,9.88
2023-05-21T22:00:19.627Z,8.82
2023-05-21T22:02:49.051Z,9.73
2023-05-21T22:05:15.639Z,10.50
2023-05-21T22:07:46.297Z,10.30
2023-05-21T22:10:14.744Z,9.57
2023-05-21T22:12:41.515Z,9.75
2023-05-21T22:15:08.777Z,10.73
2023-05-21T22:17:35.306Z,10.13
2023-05-21T22:20:01.879Z,10.73
2023-05-21T22:22:28.342Z,10.32
2023-05-21T22:24:55.191Z,10.75
2023-05-21T22:27:21.770Z,10.43
2023-05-21T22:29:48.282Z,10.23
2023-05-21T22:32:14.842Z,10.18
2023-05-21T22:34:42.187Z,11.05
2023-05-21T22:37:08.973Z,9.82
2023-05-21T22:39:35.467Z,9.93
2023-05-21T22:42:02.871Z,10.52
2023-05-21T22:44:29.401Z,10.40
2023-05-21T22:47:00.153Z,11.18
2023-05-21T22:49:27.014Z,11.32
2023-05-21T22:51:54.317Z,10.63
2023-05-21T22:54:21.110Z,11.13
2023-05-21T22:56:49.214Z,10.90
2023-05-21T22:59:15.722Z,10.95
2023-05-21T23:01:42.214Z,11.45
2023-05-21T23:04:08.705Z,11.20
2023-05-21T23:06:35.593Z,11.35
2023-05-21T23:09:02.041Z,11.25
2023-05-21T23:11:28.525Z,11.45
2023-05-21T23:13:54.952Z,12.15
2023-05-21T23:16:22.933Z,11.03
2023-05-21T23:18:49.999Z,11.63
2023-05-21T23:21:17.531Z,11.02
2023-05-21T23:23:44.025Z,10.82
2023-05-21T23:26:10.868Z,10.50
2023-05-21T23:28:38.586Z,10.97
2023-05-21T23:31:05.963Z,11.65
2023-05-21T23:33:32.704Z,12.13
2023-05-21T23:35:59.153Z,11.95
2023-05-21T23:38:26.076Z,12.52
2023-05-21T23:40:53.102Z,12.13
2023-05-21T23:43:19.591Z,12.18
2023-05-21T23:45:46.113Z,12.43
2023-05-21T23:48:12.719Z,11.80
2023-05-21T23:50:39.342Z,11.98
2023-05-21T23:53:05.959Z,13.00
2023-05-21T23:55:32.404Z,12.57
2023-05-21T23:57:58.894Z,12.07
